Terminal Aerodrome Forecast
Issued by NWS

Home | Current Version | Previous Version | Text Only | Print | Product List | Glossary On
Versions: 1 2 3 4 5 6 7 8 9 10 11 12 13 14 15 16 17 18 19 20 21 22 23 24
000
FTUS43 KAPX 221735
TAFPLN
TAF
KPLN 221735Z 2218/2318 14010KT P6SM SCT070
     FM222000 11006KT P6SM SKC
     FM230400 09005KT P6SM OVC070
     FM230700 09005KT 5SM -SN SCT015 OVC035
     FM230900 08007KT 2SM -SN OVC007
     FM231600 08008KT 3SM -RA BR OVC007=

USA.gov is the U.S. government's official web portal to all federal, state and local government web resources and services.